createdAt,value
2019-05-13T00:00:55.910Z,44.87
2019-05-13T00:03:26.390Z,52.70
2019-05-13T00:05:56.862Z,44.97
2019-05-13T00:08:27.364Z,37.90
2019-05-13T00:10:58.201Z,40.87
2019-05-13T00:13:28.726Z,42.80
2019-05-13T00:15:59.215Z,42.27
2019-05-13T00:18:29.869Z,33.57
2019-05-13T00:21:00.342Z,41.70
2019-05-13T00:23:31.018Z,39.47
2019-05-13T00:26:03.843Z,38.20
2019-05-13T00:28:36.879Z,38.93
2019-05-13T00:31:07.351Z,38.97
2019-05-13T00:33:38.057Z,47.40
2019-05-13T00:36:08.513Z,48.73
2019-05-13T00:38:39.090Z,61.00
2019-05-13T00:41:10.673Z,49.20
2019-05-13T00:43:41.225Z,53.77
2019-05-13T00:46:14.082Z,49.67
2019-05-13T00:48:44.165Z,58.83
2019-05-13T00:51:14.623Z,51.57
2019-05-13T00:53:45.088Z,46.93
2019-05-13T00:56:15.695Z,43.07
2019-05-13T00:58:46.229Z,59.70
2019-05-13T01:01:16.692Z,52.57
2019-05-13T01:03:47.180Z,66.27
2019-05-13T01:06:17.761Z,50.67
2019-05-13T01:08:48.340Z,47.70
2019-05-13T01:11:18.803Z,45.83
2019-05-13T01:13:49.259Z,40.67
2019-05-13T01:16:20.001Z,60.43
2019-05-13T01:18:50.572Z,46.70
2019-05-13T01:21:21.070Z,66.40
2019-05-13T01:23:54.196Z,51.13
2019-05-13T01:26:23.817Z,44.60
2019-05-13T01:28:54.319Z,55.90
2019-05-13T01:31:26.964Z,94.00
2019-05-13T01:33:57.424Z,52.57
2019-05-13T01:36:28.019Z,56.87
2019-05-13T01:38:58.521Z,52.47
2019-05-13T01:41:29.180Z,53.00
2019-05-13T01:43:59.782Z,52.97
2019-05-13T01:46:30.306Z,47.97
2019-05-13T01:49:00.780Z,40.83
2019-05-13T01:51:33.421Z,43.53
2019-05-13T01:54:04.116Z,44.73
2019-05-13T01:56:34.854Z,52.83
2019-05-13T01:59:05.395Z,38.93
2019-05-13T02:01:35.876Z,40.13
2019-05-13T02:04:06.406Z,42.87
2019-05-13T02:06:36.944Z,47.73
2019-05-13T02:09:09.103Z,38.37
2019-05-13T02:11:39.763Z,45.83
2019-05-13T02:14:10.639Z,44.63
2019-05-13T02:16:41.193Z,45.80
2019-05-13T02:19:14.132Z,60.60
2019-05-13T02:21:44.121Z,51.33
2019-05-13T02:24:14.697Z,48.37
2019-05-13T02:26:45.141Z,58.90
2019-05-13T02:29:15.595Z,50.80
2019-05-13T02:31:51.842Z,54.97
2019-05-13T02:34:18.278Z,55.70
2019-05-13T02:36:48.824Z,51.30
2019-05-13T02:39:22.260Z,52.97
2019-05-13T02:41:53.076Z,66.03
2019-05-13T02:44:23.543Z,67.43
2019-05-13T02:46:54.031Z,47.13
2019-05-13T02:49:24.498Z,50.97
2019-05-13T02:51:55.120Z,56.97
2019-05-13T02:54:25.634Z,70.97
2019-05-13T02:56:56.254Z,54.40
2019-05-13T02:59:26.689Z,49.67
2019-05-13T03:01:57.185Z,69.70
2019-05-13T03:04:27.663Z,45.07
2019-05-13T03:06:58.392Z,58.97
2019-05-13T03:09:32.178Z,44.03
2019-05-13T03:12:03.958Z,58.47
2019-05-13T03:14:33.382Z,58.57
2019-05-13T03:17:28.323Z,94.93
2019-05-13T03:19:58.808Z,41.60
2019-05-13T03:22:31.857Z,82.20
2019-05-13T03:25:03.220Z,67.87
2019-05-13T03:27:34.191Z,49.90
2019-05-13T03:30:05.108Z,59.37
2019-05-13T03:32:43.482Z,50.63
2019-05-13T03:35:08.678Z,85.50
2019-05-13T03:37:42.291Z,47.77
2019-05-13T03:40:13.301Z,50.90
2019-05-13T03:42:48.295Z,58.40
2019-05-13T03:45:21.811Z,61.50
2019-05-13T03:47:55.568Z,61.67
2019-05-13T03:50:30.414Z,60.83
2019-05-13T03:52:58.455Z,69.77
2019-05-13T03:55:32.563Z,63.03
2019-05-13T03:58:02.971Z,75.17
2019-05-13T04:00:33.815Z,58.57
2019-05-13T04:03:04.421Z,70.23
2019-05-13T04:05:34.922Z,92.17
2019-05-13T04:08:05.718Z,79.40
2019-05-13T04:10:36.631Z,77.70
2019-05-13T04:13:07.128Z,69.43
2019-05-13T04:15:38.083Z,63.33
2019-05-13T04:18:12.150Z,77.10
2019-05-13T04:20:42.642Z,92.43
2019-05-13T04:23:14.520Z,93.77
2019-05-13T04:25:46.350Z,72.87
2019-05-13T04:28:16.903Z,77.17
2019-05-13T04:30:48.217Z,78.43
2019-05-13T04:33:18.760Z,71.20
2019-05-13T04:35:49.310Z,66.63
2019-05-13T04:38:22.786Z,67.37
2019-05-13T04:40:53.030Z,52.73
2019-05-13T04:43:23.847Z,55.73
2019-05-13T04:45:54.365Z,51.77
2019-05-13T04:48:24.981Z,50.80
2019-05-13T04:50:55.432Z,60.93
2019-05-13T04:53:25.974Z,59.33
2019-05-13T04:55:57.133Z,64.60
2019-05-13T04:58:27.788Z,55.00
2019-05-13T05:02:05.054Z,61.70
2019-05-13T05:05:05.790Z,57.73
2019-05-13T05:08:04.167Z,55.87
2019-05-13T05:11:52.881Z,48.63
2019-05-13T05:15:13.856Z,54.27
2019-05-13T05:18:32.620Z,47.33
2019-05-13T05:21:21.815Z,42.33
2019-05-13T05:28:16.747Z,36.70
2019-05-13T05:31:27.417Z,43.17
2019-05-13T05:34:34.184Z,33.23
2019-05-13T05:37:48.275Z,37.70
2019-05-13T05:40:31.321Z,43.73
2019-05-13T05:42:56.730Z,51.53
2019-05-13T05:45:27.361Z,50.00
2019-05-13T05:48:02.022Z,43.57
2019-05-13T05:50:33.972Z,41.93
2019-05-13T05:53:07.160Z,36.83
2019-05-13T05:55:42.268Z,34.30
2019-05-13T05:58:15.184Z,23.60
2019-05-13T06:00:48.616Z,24.87
2019-05-13T06:03:21.885Z,82.87
2019-05-13T06:05:53.048Z,32.67
2019-05-13T06:08:23.579Z,30.03
2019-05-13T06:10:54.076Z,27.73
2019-05-13T06:13:24.607Z,16.73
2019-05-13T06:15:55.200Z,18.10
2019-05-13T06:18:25.703Z,18.90
2019-05-13T06:20:56.164Z,14.97
2019-05-13T06:23:27.201Z,21.27
2019-05-13T06:26:01.782Z,17.13
2019-05-13T06:28:32.294Z,15.03
2019-05-13T06:31:02.969Z,15.57
2019-05-13T06:33:33.770Z,21.67
2019-05-13T06:36:04.670Z,15.70
2019-05-13T06:38:35.969Z,10.37
2019-05-13T06:41:11.265Z,9.63
2019-05-13T06:43:41.710Z,10.27
2019-05-13T06:46:12.409Z,12.83
2019-05-13T06:48:42.962Z,11.13
2019-05-13T06:51:15.567Z,9.47
2019-05-13T06:53:46.040Z,9.27
2019-05-13T06:56:16.500Z,8.53
2019-05-13T06:58:46.948Z,7.27
2019-05-13T07:01:17.458Z,9.50
2019-05-13T07:03:47.922Z,9.50
2019-05-13T07:06:18.529Z,6.50
2019-05-13T07:08:49.123Z,7.93
2019-05-13T07:11:22.301Z,6.70
2019-05-13T07:13:52.025Z,7.87
2019-05-13T07:16:22.600Z,6.47
2019-05-13T07:18:54.746Z,12.17
2019-05-13T07:21:25.333Z,11.73
2019-05-13T07:23:56.146Z,7.27
2019-05-13T07:26:26.690Z,8.07
2019-05-13T07:28:57.662Z,14.80
2019-05-13T07:31:28.653Z,11.10
2019-05-13T07:33:59.256Z,8.47
2019-05-13T07:36:31.653Z,6.67
2019-05-13T07:39:03.512Z,7.77
2019-05-13T07:41:39.304Z,6.30
2019-05-13T07:44:06.366Z,6.80
2019-05-13T07:46:36.922Z,8.30
2019-05-13T07:49:07.426Z,6.63
2019-05-13T07:51:38.014Z,6.43
2019-05-13T07:54:08.624Z,4.33
2019-05-13T07:56:38.937Z,6.77
2019-05-13T07:59:12.021Z,6.00
2019-05-13T08:01:41.981Z,7.40
2019-05-13T08:04:21.967Z,5.13
2019-05-13T08:06:45.049Z,4.40
2019-05-13T08:09:15.936Z,4.57
2019-05-13T08:12:02.204Z,5.77
2019-05-13T08:14:21.809Z,3.73
2019-05-13T08:16:52.854Z,5.20
2019-05-13T08:19:23.423Z,7.73
2019-05-13T08:21:53.975Z,5.83
2019-05-13T08:24:24.429Z,4.83
2019-05-13T08:26:54.964Z,6.07
2019-05-13T08:29:27.305Z,5.77
2019-05-13T08:31:57.795Z,5.63
2019-05-13T08:34:28.765Z,5.03
2019-05-13T08:37:02.343Z,5.80
2019-05-13T08:39:35.714Z,5.93
2019-05-13T08:42:15.036Z,7.83
2019-05-13T08:44:36.122Z,4.60
2019-05-13T08:47:06.637Z,4.23
2019-05-13T08:49:37.153Z,3.27
2019-05-13T08:52:07.661Z,4.13
2019-05-13T08:54:38.210Z,5.07
2019-05-13T08:57:08.770Z,7.53
2019-05-13T08:59:39.317Z,5.10
2019-05-13T09:02:11.554Z,3.17
2019-05-13T09:04:42.647Z,5.87
2019-05-13T09:07:13.199Z,6.57
2019-05-13T09:09:44.051Z,3.37
2019-05-13T09:12:28.556Z,5.03
2019-05-13T09:14:46.739Z,5.90
2019-05-13T09:17:17.190Z,5.50
2019-05-13T09:19:47.683Z,6.27
2019-05-13T09:22:18.170Z,8.10
2019-05-13T09:24:48.857Z,3.00
2019-05-13T09:27:22.399Z,6.03
2019-05-13T09:29:54.593Z,4.10
2019-05-13T09:32:25.123Z,5.27
2019-05-13T09:34:55.940Z,4.30
2019-05-13T09:37:26.454Z,3.43
2019-05-13T09:39:56.998Z,3.07
2019-05-13T09:42:27.529Z,5.10
2019-05-13T09:44:58.128Z,3.97
2019-05-13T09:47:28.643Z,2.90
2019-05-13T09:49:59.439Z,3.13
2019-05-13T09:52:31.883Z,3.63
2019-05-13T09:55:03.195Z,2.10
2019-05-13T09:57:33.828Z,2.03
2019-05-13T10:00:06.254Z,2.67
2019-05-13T10:02:37.189Z,3.07
2019-05-13T10:05:08.405Z,2.70
2019-05-13T10:07:42.137Z,2.77
2019-05-13T10:10:12.178Z,3.07
2019-05-13T10:12:42.742Z,4.03
2019-05-13T10:15:13.411Z,2.83
2019-05-13T10:17:43.857Z,3.17
2019-05-13T10:20:14.881Z,4.67
2019-05-13T10:22:45.472Z,3.30
2019-05-13T10:25:22.261Z,6.80
2019-05-13T10:27:53.467Z,6.87
2019-05-13T10:30:24.118Z,3.97
2019-05-13T10:32:59.121Z,3.10
2019-05-13T10:35:27.101Z,7.07
2019-05-13T10:37:57.609Z,8.67
2019-05-13T10:40:28.125Z,2.53
2019-05-13T10:42:58.730Z,5.77
2019-05-13T10:45:29.524Z,5.70
2019-05-13T10:48:02.812Z,3.83
2019-05-13T10:50:35.101Z,4.67
2019-05-13T10:53:07.146Z,5.27
2019-05-13T10:55:37.969Z,5.77
2019-05-13T10:58:12.238Z,4.70
2019-05-13T11:00:51.833Z,4.87
2019-05-13T11:03:23.432Z,5.07
2019-05-13T11:05:55.082Z,3.87
2019-05-13T11:08:26.103Z,4.33
2019-05-13T11:10:56.575Z,4.50
2019-05-13T11:13:46.823Z,2.93
2019-05-13T11:16:01.926Z,2.50
2019-05-13T11:18:32.076Z,4.60
2019-05-13T11:21:03.279Z,3.40
2019-05-13T11:23:33.808Z,6.13
2019-05-13T11:26:04.422Z,4.87
2019-05-13T11:28:35.618Z,2.33
2019-05-13T11:31:06.154Z,3.77
2019-05-13T11:33:36.818Z,6.37
2019-05-13T11:36:07.273Z,3.37
2019-05-13T11:38:37.760Z,3.40
2019-05-13T11:41:09.188Z,2.93
2019-05-13T11:43:41.479Z,3.00
2019-05-13T11:46:12.221Z,2.70
2019-05-13T11:48:42.950Z,4.63
2019-05-13T11:51:13.413Z,5.60
2019-05-13T11:53:43.933Z,2.53
2019-05-13T11:56:14.626Z,2.83
2019-05-13T11:58:45.450Z,2.43
2019-05-13T12:01:15.957Z,9.23
2019-05-13T12:03:46.456Z,3.30
2019-05-13T12:06:17.074Z,6.07
2019-05-13T12:08:52.082Z,1.97
2019-05-13T12:11:22.396Z,6.23
2019-05-13T12:13:53.120Z,4.57
2019-05-13T12:16:23.932Z,2.03
2019-05-13T12:18:54.433Z,3.03
2019-05-13T12:21:24.954Z,2.83
2019-05-13T12:23:55.840Z,5.60
2019-05-13T12:26:26.429Z,3.80
2019-05-13T12:28:56.926Z,2.27
2019-05-13T12:31:27.395Z,3.90
2019-05-13T12:33:57.849Z,5.47
2019-05-13T12:36:28.437Z,5.83
2019-05-13T12:39:00.470Z,4.43
2019-05-13T12:41:33.050Z,3.10
2019-05-13T12:44:03.519Z,4.03
2019-05-13T12:46:34.998Z,3.47
2019-05-13T12:49:05.605Z,3.23
2019-05-13T12:51:38.370Z,3.43
2019-05-13T12:54:13.572Z,4.33
2019-05-13T12:56:43.652Z,3.90
2019-05-13T12:59:14.175Z,2.97
2019-05-13T13:01:44.986Z,2.00
2019-05-13T13:04:15.494Z,3.27
2019-05-13T13:06:45.975Z,1.83
2019-05-13T13:09:16.559Z,2.43
2019-05-13T13:11:47.031Z,3.50
2019-05-13T13:14:17.601Z,3.90
2019-05-13T13:16:49.118Z,3.80
2019-05-13T13:19:22.021Z,1.20
2019-05-13T13:21:53.505Z,2.90
2019-05-13T13:24:24.497Z,2.37
2019-05-13T13:26:55.302Z,3.77
2019-05-13T13:29:26.211Z,3.13
2019-05-13T13:31:56.716Z,2.23
2019-05-13T13:34:27.272Z,2.20
2019-05-13T13:36:57.823Z,4.67
2019-05-13T13:39:28.410Z,2.70
2019-05-13T13:42:04.997Z,3.43
2019-05-13T13:44:35.076Z,3.90
2019-05-13T13:47:05.183Z,2.83
2019-05-13T13:49:35.910Z,2.40
2019-05-13T13:52:06.399Z,2.33
2019-05-13T13:54:43.814Z,1.97
2019-05-13T13:57:13.407Z,2.80
2019-05-13T14:00:19.287Z,2.67
2019-05-13T14:02:18.188Z,1.90
2019-05-13T14:04:54.133Z,3.27
2019-05-13T14:07:31.394Z,1.80
2019-05-13T14:09:54.262Z,2.53
2019-05-13T14:12:24.723Z,2.10
2019-05-13T14:14:55.649Z,2.73
2019-05-13T14:17:26.211Z,1.83
2019-05-13T14:19:59.352Z,4.37
2019-05-13T14:22:32.302Z,3.40
2019-05-13T14:25:02.641Z,3.10
2019-05-13T14:27:33.557Z,1.17
2019-05-13T14:30:04.546Z,2.93
2019-05-13T14:32:35.309Z,1.77
2019-05-13T14:35:08.917Z,2.07
2019-05-13T14:37:39.559Z,3.17
2019-05-13T14:40:12.304Z,1.50
2019-05-13T14:42:42.891Z,2.10
2019-05-13T14:45:13.819Z,2.27
2019-05-13T14:47:44.482Z,2.00
2019-05-13T14:50:15.421Z,2.63
2019-05-13T14:52:46.014Z,3.13
2019-05-13T14:55:16.816Z,2.37
2019-05-13T14:57:47.751Z,3.50
2019-05-13T15:00:18.524Z,1.60
2019-05-13T15:02:51.647Z,4.03
2019-05-13T15:05:22.025Z,4.93
2019-05-13T15:07:53.023Z,3.67
2019-05-13T15:10:23.625Z,3.13
2019-05-13T15:12:54.156Z,2.63
2019-05-13T15:15:24.659Z,2.40
2019-05-13T15:17:55.162Z,1.67
2019-05-13T15:20:25.926Z,1.60
2019-05-13T15:22:56.427Z,2.77
2019-05-13T15:25:26.935Z,1.73
2019-05-13T15:27:57.735Z,1.70
2019-05-13T15:30:28.244Z,1.67
2019-05-13T15:33:01.771Z,2.80
2019-05-13T15:35:32.266Z,2.53
2019-05-13T15:38:02.870Z,4.47
2019-05-13T15:40:33.619Z,2.70
2019-05-13T15:43:04.119Z,1.20
2019-05-13T15:45:35.929Z,5.73
2019-05-13T15:48:06.931Z,2.73
2019-05-13T15:50:37.687Z,2.13
2019-05-13T15:53:08.467Z,2.97
2019-05-13T15:55:39.370Z,4.07
2019-05-13T15:58:11.739Z,2.03
2019-05-13T16:00:42.560Z,1.53
2019-05-13T16:03:13.235Z,1.80
2019-05-13T16:05:44.001Z,2.47
2019-05-13T16:08:14.897Z,2.57
2019-05-13T16:10:45.700Z,1.60
2019-05-13T16:13:16.307Z,2.43
2019-05-13T16:15:48.068Z,2.90
2019-05-13T16:18:22.029Z,2.77
2019-05-13T16:20:52.396Z,1.63
2019-05-13T16:23:23.161Z,1.23
2019-05-13T16:25:53.734Z,3.23
2019-05-13T16:28:24.554Z,1.53
2019-05-13T16:30:55.675Z,1.60
2019-05-13T16:33:26.374Z,2.53
2019-05-13T16:35:57.020Z,1.87
2019-05-13T16:38:28.849Z,2.13
2019-05-13T16:40:59.494Z,3.77
2019-05-13T16:43:31.998Z,3.77
2019-05-13T16:46:02.318Z,2.60
2019-05-13T16:48:32.964Z,2.63
2019-05-13T16:51:03.536Z,4.80
2019-05-13T16:53:34.064Z,4.07
2019-05-13T16:56:04.582Z,1.67
2019-05-13T16:58:35.083Z,1.57
2019-05-13T17:01:05.588Z,2.43
2019-05-13T17:03:36.257Z,2.00
2019-05-13T17:06:06.710Z,2.23
2019-05-13T17:08:37.203Z,4.30
2019-05-13T17:11:07.718Z,2.43
2019-05-13T17:13:38.227Z,1.93
2019-05-13T17:16:10.108Z,1.73
2019-05-13T17:18:41.718Z,5.33
2019-05-13T17:21:12.921Z,2.80
2019-05-13T17:23:43.652Z,2.80
2019-05-13T17:26:16.160Z,2.40
2019-05-13T17:28:47.068Z,2.23
2019-05-13T17:31:21.869Z,1.23
2019-05-13T17:33:51.949Z,1.20
2019-05-13T17:36:22.648Z,2.73
2019-05-13T17:38:53.387Z,3.43
2019-05-13T17:41:25.187Z,6.80
2019-05-13T17:43:56.112Z,4.57
2019-05-13T17:46:32.937Z,1.93
2019-05-13T17:49:04.072Z,4.80
2019-05-13T17:51:34.683Z,2.00
2019-05-13T17:54:05.512Z,2.50
2019-05-13T17:56:39.674Z,3.33
2019-05-13T17:59:11.494Z,2.40
2019-05-13T18:01:42.384Z,2.40
2019-05-13T18:04:14.527Z,2.23
2019-05-13T18:06:46.072Z,3.80
2019-05-13T18:09:16.563Z,4.43
2019-05-13T18:11:47.947Z,2.60
2019-05-13T18:14:18.884Z,1.90
2019-05-13T18:16:51.524Z,2.77
2019-05-13T18:19:28.147Z,1.20
2019-05-13T18:21:59.119Z,4.70
2019-05-13T18:24:32.278Z,2.67
2019-05-13T18:27:04.181Z,3.27
2019-05-13T18:29:35.126Z,2.50
2019-05-13T18:32:05.676Z,3.37
2019-05-13T18:34:36.392Z,3.33
2019-05-13T18:37:11.893Z,4.53
2019-05-13T18:39:42.403Z,1.37
2019-05-13T18:42:13.057Z,3.80
2019-05-13T18:44:43.602Z,2.23
2019-05-13T18:47:17.147Z,3.40
2019-05-13T18:49:47.737Z,2.17
2019-05-13T18:52:23.083Z,1.40
2019-05-13T18:54:53.619Z,2.57
2019-05-13T18:57:26.617Z,4.33
2019-05-13T18:59:57.334Z,1.60
2019-05-13T19:02:28.158Z,3.27
2019-05-13T19:05:01.237Z,1.47
2019-05-13T19:07:31.693Z,3.43
2019-05-13T19:10:04.328Z,3.30
2019-05-13T19:12:42.129Z,1.90
2019-05-13T19:15:14.926Z,3.37
2019-05-13T19:17:45.501Z,3.17
2019-05-13T19:20:17.026Z,1.60
2019-05-13T19:22:47.928Z,1.67
2019-05-13T19:25:20.114Z,2.30
2019-05-13T19:27:57.869Z,3.37
2019-05-13T19:30:28.836Z,4.27
2019-05-13T19:33:01.355Z,3.73
2019-05-13T19:35:32.469Z,2.17
2019-05-13T19:38:04.920Z,3.60
2019-05-13T19:40:35.519Z,2.10
2019-05-13T19:43:06.225Z,7.60
2019-05-13T19:45:37.571Z,1.53
2019-05-13T19:48:11.923Z,2.70
2019-05-13T19:50:42.873Z,2.27
2019-05-13T19:53:13.781Z,3.93
2019-05-13T19:55:44.249Z,2.90
2019-05-13T19:58:14.855Z,2.20
2019-05-13T20:00:46.681Z,5.70
2019-05-13T20:03:17.781Z,3.73
2019-05-13T20:05:48.287Z,3.00
2019-05-13T20:08:21.173Z,2.90
2019-05-13T20:10:52.013Z,3.03
2019-05-13T20:13:25.556Z,3.23
2019-05-13T20:15:56.037Z,5.37
2019-05-13T20:18:26.683Z,4.50
2019-05-13T20:20:57.736Z,4.20
2019-05-13T20:23:35.797Z,3.63
2019-05-13T20:26:06.706Z,3.57
2019-05-13T20:28:41.972Z,5.63
2019-05-13T20:31:13.625Z,2.07
2019-05-13T20:33:44.773Z,3.63
2019-05-13T20:36:15.355Z,7.37
2019-05-13T20:38:45.990Z,6.13
2019-05-13T20:41:16.468Z,4.87
2019-05-13T20:43:47.127Z,4.03
2019-05-13T20:46:17.689Z,2.60
2019-05-13T20:48:49.025Z,3.63
2019-05-13T20:51:21.802Z,2.10
2019-05-13T20:53:52.514Z,3.27
2019-05-13T20:56:23.099Z,3.83
2019-05-13T20:58:53.701Z,7.03
2019-05-13T21:01:24.238Z,4.47
2019-05-13T21:03:54.890Z,3.70
2019-05-13T21:06:25.643Z,5.40
2019-05-13T21:08:56.210Z,6.80
2019-05-13T21:11:26.729Z,5.03
2019-05-13T21:13:57.365Z,4.40
2019-05-13T21:16:27.988Z,4.80
2019-05-13T21:18:58.578Z,4.17
2019-05-13T21:21:31.204Z,3.57
2019-05-13T21:24:10.360Z,3.90
2019-05-13T21:26:42.529Z,4.77
2019-05-13T21:29:13.424Z,3.00
2019-05-13T21:31:44.208Z,4.40
2019-05-13T21:34:15.152Z,3.97
2019-05-13T21:36:45.766Z,4.30
2019-05-13T21:39:16.386Z,3.73
2019-05-13T21:41:48.700Z,3.17
2019-05-13T21:44:19.190Z,3.13
2019-05-13T21:46:51.536Z,4.17
2019-05-13T21:49:23.856Z,6.73
2019-05-13T21:51:54.415Z,4.33
2019-05-13T21:54:24.908Z,6.63
2019-05-13T21:56:55.441Z,5.50
2019-05-13T21:59:25.904Z,3.70
2019-05-13T22:01:56.423Z,4.47
2019-05-13T22:04:27.126Z,3.47
2019-05-13T22:07:01.512Z,3.70
2019-05-13T22:09:32.219Z,5.63
2019-05-13T22:12:02.950Z,5.57
2019-05-13T22:14:35.696Z,9.40
2019-05-13T22:17:06.304Z,3.53
2019-05-13T22:19:36.905Z,3.33
2019-05-13T22:22:07.464Z,3.80
2019-05-13T22:24:37.928Z,3.37
2019-05-13T22:27:10.924Z,4.77
2019-05-13T22:29:41.458Z,3.80
2019-05-13T22:32:12.107Z,6.30
2019-05-13T22:34:42.765Z,6.87
2019-05-13T22:37:13.838Z,2.17
2019-05-13T22:39:44.320Z,2.83
2019-05-13T22:42:15.139Z,4.20
2019-05-13T22:44:45.631Z,3.80
2019-05-13T22:47:16.119Z,3.27
2019-05-13T22:49:46.594Z,3.23
2019-05-13T22:52:17.096Z,2.27
2019-05-13T22:54:47.877Z,5.90
2019-05-13T22:57:18.433Z,5.37
2019-05-13T22:59:48.818Z,2.83
2019-05-13T23:02:21.796Z,2.80
2019-05-13T23:04:51.669Z,11.93
2019-05-13T23:07:22.464Z,2.83
2019-05-13T23:09:53.147Z,7.07
2019-05-13T23:12:23.827Z,3.50
2019-05-13T23:14:54.275Z,3.33
2019-05-13T23:17:25.109Z,3.57
2019-05-13T23:19:56.702Z,4.60
2019-05-13T23:22:27.229Z,3.13
2019-05-13T23:24:57.727Z,2.87
2019-05-13T23:27:28.177Z,7.23
2019-05-13T23:30:00.993Z,3.30
2019-05-13T23:32:32.056Z,4.13
2019-05-13T23:35:02.841Z,3.10
2019-05-13T23:37:33.347Z,4.60
2019-05-13T23:40:04.027Z,3.80
2019-05-13T23:42:34.531Z,8.93
2019-05-13T23:45:05.203Z,4.47
2019-05-13T23:47:35.689Z,6.60
2019-05-13T23:50:07.883Z,4.07
2019-05-13T23:52:38.386Z,4.50
2019-05-13T23:55:11.034Z,5.90
2019-05-13T23:57:42.254Z,3.30
